N172SB K3N6-KTEB
Flight info
| Callsign | N172SB |
|---|---|
| Flight time | 0h 38m |
| Altitude | 3000 |
| Route | APPLE VEZEE UJODY LBRTY HUDSN RABBY SHREW/N0111F040 UNVIL |
| Aircraft | C172/L-SFG/C |
Departure
| Time | 2026-05-07 22:11 |
|---|---|
| Airport | Old Bridge Airport (K3N6) |
Arrival
| Time | 2026-05-07 22:50 |
|---|---|
| Airport | Teterboro Airport (KTEB) |
| Time | Latitude | Longitude | Altitude | Speed | Heading |
|---|---|---|---|---|---|
| 2026-05-07 22:07 | 40.32838 | -74.34964 | 63 ft | 0 kts | 201° |
| 2026-05-07 22:09 | 40.32808 | -74.34974 | 63 ft | 15 kts | 206° |
| 2026-05-07 22:10 | 40.32698 | -74.35111 | 61 ft | 17 kts | 226° |
| 2026-05-07 22:10 | 40.32668 | -74.35146 | 60 ft | 1 kts | 200° |
| 2026-05-07 22:10 | 40.32683 | -74.35071 | 61 ft | 31 kts | 41° |
| 2026-05-07 22:10 | 40.32959 | -74.34718 | 74 ft | 74 kts | 45° |
| 2026-05-07 22:11 | 40.33345 | -74.34236 | 279 ft | 76 kts | 41° |
| 2026-05-07 22:11 | 40.33751 | -74.33792 | 487 ft | 77 kts | 37° |
| 2026-05-07 22:11 | 40.34201 | -74.33385 | 706 ft | 77 kts | 31° |
| 2026-05-07 22:11 | 40.34682 | -74.33035 | 924 ft | 77 kts | 26° |
| 2026-05-07 22:12 | 40.35172 | -74.32757 | 1134 ft | 77 kts | 20° |
| 2026-05-07 22:12 | 40.35679 | -74.32539 | 1340 ft | 77 kts | 15° |
| 2026-05-07 22:12 | 40.36176 | -74.32234 | 1549 ft | 77 kts | 28° |
| 2026-05-07 22:12 | 40.36651 | -74.31881 | 1752 ft | 77 kts | 29° |
| 2026-05-07 22:13 | 40.37107 | -74.31522 | 1948 ft | 77 kts | 40° |
| 2026-05-07 22:13 | 40.37385 | -74.30920 | 2149 ft | 77 kts | 68° |
| 2026-05-07 22:13 | 40.37568 | -74.30266 | 2348 ft | 76 kts | 70° |
| 2026-05-07 22:13 | 40.37741 | -74.29617 | 2545 ft | 76 kts | 70° |
| 2026-05-07 22:14 | 40.37912 | -74.28970 | 2743 ft | 75 kts | 70° |
| 2026-05-07 22:14 | 40.38083 | -74.28328 | 2937 ft | 74 kts | 70° |
| 2026-05-07 22:14 | 40.38308 | -74.27661 | 3005 ft | 90 kts | 50° |
| 2026-05-07 22:14 | 40.38831 | -74.27080 | 3011 ft | 105 kts | 37° |
| 2026-05-07 22:15 | 40.39433 | -74.26452 | 3005 ft | 113 kts | 39° |
| 2026-05-07 22:15 | 40.40041 | -74.25765 | 3002 ft | 117 kts | 41° |
| 2026-05-07 22:15 | 40.40649 | -74.25043 | 3001 ft | 119 kts | 43° |
| 2026-05-07 22:15 | 40.41259 | -74.24298 | 3000 ft | 119 kts | 43° |
| 2026-05-07 22:16 | 40.41996 | -74.23795 | 3002 ft | 119 kts | 17° |
| 2026-05-07 22:16 | 40.42824 | -74.23495 | 3000 ft | 119 kts | 14° |
| 2026-05-07 22:16 | 40.43653 | -74.23211 | 3000 ft | 120 kts | 14° |
| 2026-05-07 22:16 | 40.44458 | -74.22937 | 3000 ft | 120 kts | 14° |
| 2026-05-07 22:17 | 40.45284 | -74.22594 | 2995 ft | 120 kts | 29° |
| 2026-05-07 22:17 | 40.45978 | -74.21952 | 2999 ft | 120 kts | 37° |
| 2026-05-07 22:17 | 40.46656 | -74.21268 | 3000 ft | 120 kts | 38° |
| 2026-05-07 22:17 | 40.47322 | -74.20591 | 3000 ft | 120 kts | 38° |
| 2026-05-07 22:18 | 40.47995 | -74.19907 | 2999 ft | 120 kts | 38° |
| 2026-05-07 22:18 | 40.48970 | -74.18153 | 2999 ft | 119 kts | 66° |
| 2026-05-07 22:18 | 40.49299 | -74.17150 | 3000 ft | 120 kts | 66° |
| 2026-05-07 22:19 | 40.49626 | -74.16146 | 3000 ft | 120 kts | 66° |
| 2026-05-07 22:19 | 40.49915 | -74.15118 | 2999 ft | 120 kts | 73° |
| 2026-05-07 22:19 | 40.50177 | -74.14081 | 3000 ft | 120 kts | 67° |
| 2026-05-07 22:19 | 40.50573 | -74.13123 | 3000 ft | 120 kts | 57° |
| 2026-05-07 22:20 | 40.51080 | -74.12229 | 3000 ft | 120 kts | 51° |
| 2026-05-07 22:20 | 40.51628 | -74.11404 | 2995 ft | 114 kts | 47° |
| 2026-05-07 22:20 | 40.52165 | -74.10660 | 2986 ft | 107 kts | 46° |
| 2026-05-07 22:20 | 40.52687 | -74.09966 | 2981 ft | 103 kts | 45° |
| 2026-05-07 22:21 | 40.53197 | -74.09305 | 2978 ft | 101 kts | 44° |
| 2026-05-07 22:21 | 40.53707 | -74.08652 | 2947 ft | 102 kts | 44° |
| 2026-05-07 22:21 | 40.54230 | -74.07986 | 2772 ft | 105 kts | 44° |
| 2026-05-07 22:21 | 40.54774 | -74.07293 | 2594 ft | 107 kts | 44° |
| 2026-05-07 22:22 | 40.55320 | -74.06603 | 2417 ft | 107 kts | 43° |
| 2026-05-07 22:22 | 40.55980 | -74.06153 | 2241 ft | 107 kts | 18° |
| 2026-05-07 22:22 | 40.56694 | -74.05884 | 2068 ft | 107 kts | 15° |
| 2026-05-07 22:22 | 40.57396 | -74.05644 | 2002 ft | 98 kts | 14° |
| 2026-05-07 22:23 | 40.58055 | -74.05424 | 1905 ft | 98 kts | 14° |
| 2026-05-07 22:23 | 40.58715 | -74.05204 | 1783 ft | 99 kts | 14° |
| 2026-05-07 22:23 | 40.59388 | -74.04981 | 1658 ft | 100 kts | 14° |
| 2026-05-07 22:23 | 40.60068 | -74.04755 | 1536 ft | 100 kts | 14° |
| 2026-05-07 22:24 | 40.60728 | -74.04589 | 1499 ft | 92 kts | 4° |
| 2026-05-07 22:24 | 40.61354 | -74.04567 | 1498 ft | 89 kts | 0° |
| 2026-05-07 22:24 | 40.61971 | -74.04564 | 1499 ft | 88 kts | 360° |
| 2026-05-07 22:24 | 40.62592 | -74.04562 | 1499 ft | 88 kts | 360° |
| 2026-05-07 22:25 | 40.63201 | -74.04560 | 1499 ft | 87 kts | 360° |
| 2026-05-07 22:25 | 40.63808 | -74.04559 | 1499 ft | 87 kts | 360° |
| 2026-05-07 22:25 | 40.64425 | -74.04558 | 1499 ft | 87 kts | 360° |
| 2026-05-07 22:25 | 40.65032 | -74.04556 | 1499 ft | 87 kts | 360° |
| 2026-05-07 22:26 | 40.65641 | -74.04532 | 1499 ft | 87 kts | 8° |
| 2026-05-07 22:26 | 40.66237 | -74.04364 | 1499 ft | 87 kts | 13° |
| 2026-05-07 22:26 | 40.66838 | -74.04167 | 1468 ft | 90 kts | 14° |
| 2026-05-07 22:26 | 40.67467 | -74.03957 | 1390 ft | 96 kts | 14° |
| 2026-05-07 22:27 | 40.68138 | -74.03733 | 1314 ft | 99 kts | 14° |
| 2026-05-07 22:27 | 40.68795 | -74.03514 | 1299 ft | 95 kts | 14° |
| 2026-05-07 22:27 | 40.69427 | -74.03303 | 1297 ft | 92 kts | 14° |
| 2026-05-07 22:27 | 40.70045 | -74.03097 | 1298 ft | 90 kts | 14° |
| 2026-05-07 22:28 | 40.70660 | -74.02891 | 1298 ft | 89 kts | 14° |
| 2026-05-07 22:28 | 40.71261 | -74.02690 | 1299 ft | 88 kts | 14° |
| 2026-05-07 22:28 | 40.71862 | -74.02489 | 1299 ft | 88 kts | 14° |
| 2026-05-07 22:28 | 40.72456 | -74.02290 | 1299 ft | 88 kts | 14° |
| 2026-05-07 22:29 | 40.73058 | -74.02089 | 1299 ft | 87 kts | 14° |
| 2026-05-07 22:29 | 40.73676 | -74.01882 | 1299 ft | 87 kts | 14° |
| 2026-05-07 22:29 | 40.74287 | -74.01678 | 1299 ft | 87 kts | 14° |
| 2026-05-07 22:29 | 40.74880 | -74.01479 | 1299 ft | 87 kts | 14° |
| 2026-05-07 22:30 | 40.75447 | -74.01176 | 1299 ft | 87 kts | 27° |
| 2026-05-07 22:30 | 40.75989 | -74.00796 | 1299 ft | 87 kts | 28° |
| 2026-05-07 22:30 | 40.76530 | -74.00408 | 1299 ft | 87 kts | 28° |
| 2026-05-07 22:30 | 40.77067 | -74.00023 | 1299 ft | 87 kts | 28° |
| 2026-05-07 22:31 | 40.77610 | -73.99632 | 1299 ft | 87 kts | 28° |
| 2026-05-07 22:31 | 40.77965 | -73.99377 | 1299 ft | 87 kts | 28° |
| 2026-05-07 22:31 | 40.78304 | -73.99146 | 1330 ft | 93 kts | 37° |
| 2026-05-07 22:31 | 40.78873 | -73.98734 | 1301 ft | 93 kts | 37° |
| 2026-05-07 22:32 | 40.79449 | -73.98389 | 1296 ft | 93 kts | 31° |
| 2026-05-07 22:32 | 40.79932 | -73.98134 | 1296 ft | 92 kts | 30° |
| 2026-05-07 22:32 | 40.80306 | -73.97938 | 1294 ft | 91 kts | 31° |
| 2026-05-07 22:32 | 40.80928 | -73.97614 | 1295 ft | 90 kts | 31° |
| 2026-05-07 22:33 | 40.81587 | -73.97272 | 1297 ft | 90 kts | 30° |
| 2026-05-07 22:33 | 40.82159 | -73.96960 | 1282 ft | 83 kts | 21° |
| 2026-05-07 22:33 | 40.82705 | -73.96680 | 1298 ft | 83 kts | 21° |
| 2026-05-07 22:33 | 40.83250 | -73.96401 | 1300 ft | 84 kts | 21° |
| 2026-05-07 22:34 | 40.83813 | -73.96111 | 1300 ft | 85 kts | 21° |
| 2026-05-07 22:34 | 40.84378 | -73.95819 | 1300 ft | 86 kts | 21° |
| 2026-05-07 22:34 | 40.84939 | -73.95528 | 1300 ft | 86 kts | 21° |
| 2026-05-07 22:34 | 40.85506 | -73.95234 | 1300 ft | 87 kts | 21° |
| 2026-05-07 22:35 | 40.86071 | -73.94940 | 1300 ft | 87 kts | 21° |
| 2026-05-07 22:35 | 40.86653 | -73.94701 | 1300 ft | 87 kts | 9° |
| 2026-05-07 22:35 | 40.87259 | -73.94604 | 1300 ft | 87 kts | 5° |
| 2026-05-07 22:35 | 40.87871 | -73.94526 | 1483 ft | 85 kts | 5° |
| 2026-05-07 22:36 | 40.88504 | -73.94448 | 1753 ft | 79 kts | 5° |
| 2026-05-07 22:36 | 40.89085 | -73.94376 | 2018 ft | 73 kts | 5° |
| 2026-05-07 22:36 | 40.89629 | -73.94309 | 2286 ft | 66 kts | 4° |
| 2026-05-07 22:36 | 40.90129 | -73.94248 | 2482 ft | 68 kts | 4° |
| 2026-05-07 22:37 | 40.90758 | -73.94173 | 2517 ft | 93 kts | 5° |
| 2026-05-07 22:37 | 40.91568 | -73.94074 | 2510 ft | 109 kts | 5° |
| 2026-05-07 22:37 | 40.92466 | -73.93962 | 2503 ft | 116 kts | 5° |
| 2026-05-07 22:37 | 40.93387 | -73.93848 | 2501 ft | 119 kts | 5° |
| 2026-05-07 22:38 | 40.94331 | -73.93730 | 2500 ft | 119 kts | 5° |
| 2026-05-07 22:38 | 40.95271 | -73.93614 | 2500 ft | 120 kts | 5° |
| 2026-05-07 22:38 | 40.96219 | -73.93497 | 2500 ft | 120 kts | 5° |
| 2026-05-07 22:38 | 40.97167 | -73.93380 | 2499 ft | 120 kts | 5° |
| 2026-05-07 22:39 | 40.98076 | -73.93591 | 2499 ft | 120 kts | 325° |
| 2026-05-07 22:39 | 40.98676 | -73.94515 | 2501 ft | 119 kts | 302° |
| 2026-05-07 22:39 | 40.99132 | -73.95526 | 2500 ft | 120 kts | 299° |
| 2026-05-07 22:39 | 40.99536 | -73.96484 | 2500 ft | 120 kts | 298° |
| 2026-05-07 22:40 | 40.99938 | -73.97458 | 2392 ft | 113 kts | 298° |
| 2026-05-07 22:40 | 41.00294 | -73.98329 | 2250 ft | 100 kts | 298° |
| 2026-05-07 22:40 | 41.00617 | -73.99123 | 2115 ft | 93 kts | 298° |
| 2026-05-07 22:40 | 41.00924 | -73.99884 | 1981 ft | 89 kts | 298° |
| 2026-05-07 22:41 | 41.01225 | -74.00631 | 1847 ft | 87 kts | 298° |
| 2026-05-07 22:41 | 41.01516 | -74.01354 | 1716 ft | 85 kts | 298° |
| 2026-05-07 22:41 | 41.01794 | -74.02045 | 1590 ft | 84 kts | 298° |
| 2026-05-07 22:41 | 41.02064 | -74.02716 | 1506 ft | 79 kts | 298° |
| 2026-05-07 22:42 | 41.02307 | -74.03359 | 1492 ft | 71 kts | 285° |
| 2026-05-07 22:42 | 41.02243 | -74.03972 | 1501 ft | 68 kts | 237° |
| 2026-05-07 22:42 | 41.01845 | -74.04367 | 1506 ft | 72 kts | 199° |
| 2026-05-07 22:42 | 41.01342 | -74.04537 | 1504 ft | 76 kts | 191° |
| 2026-05-07 22:43 | 41.00796 | -74.04659 | 1503 ft | 79 kts | 188° |
| 2026-05-07 22:43 | 41.00274 | -74.04751 | 1502 ft | 81 kts | 186° |
| 2026-05-07 22:43 | 40.99698 | -74.04833 | 1501 ft | 83 kts | 185° |
| 2026-05-07 22:43 | 40.99121 | -74.04902 | 1501 ft | 84 kts | 185° |
| 2026-05-07 22:44 | 40.98529 | -74.04964 | 1500 ft | 85 kts | 184° |
| 2026-05-07 22:44 | 40.97940 | -74.05022 | 1500 ft | 85 kts | 184° |
| 2026-05-07 22:44 | 40.97339 | -74.05076 | 1500 ft | 86 kts | 184° |
| 2026-05-07 22:44 | 40.96730 | -74.05128 | 1500 ft | 86 kts | 183° |
| 2026-05-07 22:45 | 40.96127 | -74.05180 | 1500 ft | 86 kts | 183° |
| 2026-05-07 22:45 | 40.95517 | -74.05230 | 1500 ft | 86 kts | 183° |
| 2026-05-07 22:45 | 40.94923 | -74.05279 | 1500 ft | 86 kts | 183° |
| 2026-05-07 22:45 | 40.94315 | -74.05329 | 1500 ft | 86 kts | 183° |
| 2026-05-07 22:46 | 40.93665 | -74.05382 | 1447 ft | 92 kts | 183° |
| 2026-05-07 22:46 | 40.92980 | -74.05437 | 1377 ft | 96 kts | 183° |
| 2026-05-07 22:46 | 40.92343 | -74.05490 | 1331 ft | 78 kts | 184° |
| 2026-05-07 22:46 | 40.91816 | -74.05534 | 1222 ft | 65 kts | 184° |
| 2026-05-07 22:47 | 40.91340 | -74.05572 | 1112 ft | 56 kts | 183° |
| 2026-05-07 22:47 | 40.90886 | -74.05561 | 1038 ft | 80 kts | 178° |
| 2026-05-07 22:47 | 40.90244 | -74.05593 | 981 ft | 97 kts | 182° |
| 2026-05-07 22:47 | 40.89691 | -74.05625 | 887 ft | 66 kts | 183° |
| 2026-05-07 22:48 | 40.89224 | -74.05645 | 726 ft | 66 kts | 182° |
| 2026-05-07 22:48 | 40.88735 | -74.05679 | 591 ft | 67 kts | 184° |
| 2026-05-07 22:48 | 40.88282 | -74.05700 | 512 ft | 59 kts | 181° |
| 2026-05-07 22:48 | 40.87871 | -74.05713 | 437 ft | 58 kts | 184° |
| 2026-05-07 22:49 | 40.87428 | -74.05757 | 387 ft | 64 kts | 184° |
| 2026-05-07 22:49 | 40.86947 | -74.05795 | 330 ft | 68 kts | 182° |
| 2026-05-07 22:49 | 40.86475 | -74.05836 | 203 ft | 64 kts | 184° |
| 2026-05-07 22:49 | 40.86041 | -74.05875 | 89 ft | 58 kts | 181° |
| 2026-05-07 22:50 | 40.85652 | -74.05904 | 27 ft | 49 kts | 184° |
| 2026-05-07 22:50 | 40.85274 | -74.05934 | 7 ft | 53 kts | 184° |
| 2026-05-07 22:50 | 40.84929 | -74.05988 | 7 ft | 34 kts | 223° |
| 2026-05-07 22:50 | 40.84861 | -74.06121 | 7 ft | 15 kts | 156° |
| 2026-05-07 22:51 | 40.84701 | -74.06113 | 7 ft | 37 kts | 187° |
| 2026-05-07 22:51 | 40.84350 | -74.06146 | 67 ft | 56 kts | 181° |
| 2026-05-07 22:51 | 40.84182 | -74.06227 | 7 ft | 0 kts | 286° |